createdAt,value
2019-06-01T00:01:40.290Z,15.72
2019-06-01T00:04:06.711Z,13.95
2019-06-01T00:06:33.047Z,15.90
2019-06-01T00:08:59.400Z,14.00
2019-06-01T00:11:25.773Z,15.63
2019-06-01T00:13:52.009Z,16.20
2019-06-01T00:16:18.572Z,16.95
2019-06-01T00:18:45.949Z,16.73
2019-06-01T00:21:12.303Z,17.17
2019-06-01T00:23:38.583Z,16.37
2019-06-01T00:26:04.947Z,14.00
2019-06-01T00:28:31.272Z,16.97
2019-06-01T00:30:57.724Z,15.13
2019-06-01T00:33:24.230Z,14.28
2019-06-01T00:35:51.410Z,14.75
2019-06-01T00:38:18.386Z,14.75
2019-06-01T00:40:45.768Z,16.27
2019-06-01T00:43:12.286Z,15.35
2019-06-01T00:45:39.471Z,18.27
2019-06-01T00:48:05.748Z,16.25
2019-06-01T00:50:32.161Z,17.65
2019-06-01T00:52:58.541Z,16.23
2019-06-01T00:55:24.809Z,16.15
2019-06-01T00:57:51.957Z,13.65
2019-06-01T01:00:18.240Z,15.45
2019-06-01T01:02:45.833Z,15.70
2019-06-01T01:05:15.091Z,15.15
2019-06-01T01:07:41.438Z,17.10
2019-06-01T01:10:07.877Z,15.95
2019-06-01T01:12:36.190Z,15.18
2019-06-01T01:15:05.080Z,15.95
2019-06-01T01:17:31.412Z,16.87
2019-06-01T01:19:57.855Z,19.05
2019-06-01T01:22:24.141Z,16.25
2019-06-01T01:24:50.598Z,16.07
2019-06-01T01:27:16.862Z,18.23
2019-06-01T01:29:43.102Z,19.10
2019-06-01T01:32:09.369Z,21.42
2019-06-01T01:34:35.616Z,18.57
2019-06-01T01:37:01.992Z,19.60
2019-06-01T01:39:28.323Z,20.00
2019-06-01T01:41:54.568Z,18.15
2019-06-01T01:44:20.857Z,17.48
2019-06-01T01:46:47.108Z,14.50
2019-06-01T01:49:13.422Z,17.23
2019-06-01T01:51:39.868Z,15.30
2019-06-01T01:54:06.108Z,16.82
2019-06-01T01:56:32.496Z,15.38
2019-06-01T01:58:58.774Z,15.80
2019-06-01T02:01:25.042Z,18.50
2019-06-01T02:03:51.903Z,14.73
2019-06-01T02:06:19.460Z,14.23
2019-06-01T02:08:45.719Z,14.95
2019-06-01T02:11:12.001Z,20.05
2019-06-01T02:13:38.607Z,16.93
2019-06-01T02:16:04.985Z,15.48
2019-06-01T02:18:31.434Z,15.83
2019-06-01T02:20:58.475Z,12.03
2019-06-01T02:23:24.833Z,13.55
2019-06-01T02:25:51.154Z,15.90
2019-06-01T02:28:17.403Z,18.23
2019-06-01T02:30:44.627Z,13.90
2019-06-01T02:33:10.878Z,16.42
2019-06-01T02:35:37.310Z,20.00
2019-06-01T02:38:05.629Z,16.90
2019-06-01T02:40:32.396Z,17.92
2019-06-01T02:42:59.272Z,15.60
2019-06-01T02:45:27.050Z,14.28
2019-06-01T02:47:55.243Z,16.27
2019-06-01T02:50:21.710Z,17.00
2019-06-01T02:52:48.171Z,18.92
2019-06-01T02:55:16.761Z,18.50
2019-06-01T02:57:43.326Z,16.15
2019-06-01T03:00:10.185Z,17.52
2019-06-01T03:02:36.628Z,12.25
2019-06-01T03:05:07.591Z,14.60
2019-06-01T03:07:35.466Z,12.90
2019-06-01T03:10:03.302Z,13.72
2019-06-01T03:12:30.585Z,13.03
2019-06-01T03:15:00.384Z,16.50
2019-06-01T03:17:30.141Z,15.65
2019-06-01T03:19:59.615Z,15.88
2019-06-01T03:22:27.269Z,14.50
2019-06-01T03:24:57.019Z,16.32
2019-06-01T03:27:27.247Z,16.27
2019-06-01T03:29:57.019Z,13.43
2019-06-01T03:32:34.983Z,16.82
2019-06-01T03:34:51.735Z,15.20
2019-06-01T03:37:18.100Z,16.42
2019-06-01T03:39:44.644Z,16.62
2019-06-01T03:42:11.735Z,19.17
2019-06-01T03:44:38.173Z,16.55
2019-06-01T03:47:05.565Z,18.52
2019-06-01T03:49:32.049Z,15.25
2019-06-01T03:51:58.435Z,15.78
2019-06-01T03:54:24.705Z,14.73
2019-06-01T03:56:50.932Z,14.53
2019-06-01T03:59:17.205Z,14.55
2019-06-01T04:01:43.583Z,14.00
2019-06-01T04:04:11.194Z,16.25
2019-06-01T04:06:37.660Z,13.85
2019-06-01T04:09:07.600Z,16.50
2019-06-01T04:11:34.161Z,15.23
2019-06-01T04:14:01.493Z,14.87
2019-06-01T04:16:27.807Z,12.33
2019-06-01T04:18:54.327Z,13.80
2019-06-01T04:21:20.578Z,14.23
2019-06-01T04:23:46.874Z,15.53
2019-06-01T04:26:13.121Z,16.00
2019-06-01T04:28:39.422Z,14.07
2019-06-01T04:31:06.512Z,14.40
2019-06-01T04:33:32.832Z,13.62
2019-06-01T04:35:59.102Z,13.60
2019-06-01T04:38:25.570Z,16.48
2019-06-01T04:40:52.078Z,13.45
2019-06-01T04:43:18.316Z,15.05
2019-06-01T04:45:44.528Z,18.42
2019-06-01T04:48:10.718Z,18.87
2019-06-01T04:50:36.981Z,13.18
2019-06-01T04:53:04.576Z,11.83
2019-06-01T04:55:30.971Z,15.50
2019-06-01T04:57:57.253Z,17.00
2019-06-01T05:00:27.744Z,16.75
2019-06-01T05:03:04.508Z,16.87
2019-06-01T05:05:19.807Z,14.47
2019-06-01T05:07:46.191Z,15.68
2019-06-01T05:10:14.330Z,15.90
2019-06-01T05:12:41.560Z,13.70
2019-06-01T05:15:09.933Z,16.95
2019-06-01T05:17:36.363Z,17.67
2019-06-01T05:20:06.132Z,16.52
2019-06-01T05:22:32.746Z,16.15
2019-06-01T05:24:59.016Z,16.73
2019-06-01T05:27:25.267Z,16.97
2019-06-01T05:29:51.658Z,16.75
2019-06-01T05:32:18.839Z,17.23
2019-06-01T05:34:45.245Z,17.35
2019-06-01T05:37:12.325Z,22.37
2019-06-01T05:39:38.749Z,19.65
2019-06-01T05:42:05.237Z,18.95
2019-06-01T05:44:31.495Z,18.52
2019-06-01T05:46:57.735Z,20.10
2019-06-01T05:49:24.128Z,20.52
2019-06-01T05:51:50.500Z,16.50
2019-06-01T05:54:16.792Z,19.02
2019-06-01T05:56:43.116Z,23.27
2019-06-01T05:59:10.194Z,18.23
2019-06-01T06:01:36.448Z,17.65
2019-06-01T06:04:03.203Z,21.73
2019-06-01T06:06:29.435Z,16.90
2019-06-01T06:08:55.713Z,18.12
2019-06-01T06:11:22.067Z,22.20
2019-06-01T06:13:49.202Z,20.55
2019-06-01T06:16:15.787Z,25.10
2019-06-01T06:18:42.057Z,16.55
2019-06-01T06:21:08.405Z,18.82
2019-06-01T06:23:34.736Z,17.65
2019-06-01T06:26:01.104Z,18.37
2019-06-01T06:28:27.394Z,19.20
2019-06-01T06:30:54.085Z,20.60
2019-06-01T06:33:21.356Z,18.62
2019-06-01T06:35:48.141Z,18.77
2019-06-01T06:38:15.592Z,19.90
2019-06-01T06:40:42.282Z,19.32
2019-06-01T06:43:19.178Z,18.65
2019-06-01T06:45:36.679Z,21.15
2019-06-01T06:48:03.136Z,17.82
2019-06-01T06:50:29.398Z,18.80
2019-06-01T06:52:55.647Z,16.05
2019-06-01T06:55:22.062Z,18.62
2019-06-01T06:57:48.263Z,18.48
2019-06-01T07:00:14.742Z,20.35
2019-06-01T07:02:41.187Z,17.07
2019-06-01T07:05:07.911Z,16.95
2019-06-01T07:07:34.208Z,16.10
2019-06-01T07:10:00.464Z,16.00
2019-06-01T07:12:27.518Z,17.27
2019-06-01T07:14:53.811Z,16.65
2019-06-01T07:17:21.204Z,17.40
2019-06-01T07:19:48.045Z,17.12
2019-06-01T07:22:16.939Z,16.80
2019-06-01T07:24:42.408Z,18.55
2019-06-01T07:27:10.954Z,18.12
2019-06-01T07:29:37.494Z,17.10
2019-06-01T07:32:03.733Z,16.48
2019-06-01T07:34:39.720Z,15.80
2019-06-01T07:36:58.456Z,18.87
2019-06-01T07:39:24.975Z,18.30
2019-06-01T07:41:51.431Z,17.75
2019-06-01T07:44:18.011Z,15.50
2019-06-01T07:46:44.332Z,16.12
2019-06-01T07:49:10.988Z,19.23
2019-06-01T07:51:37.249Z,13.95
2019-06-01T07:54:03.587Z,13.98
2019-06-01T07:56:29.961Z,14.25
2019-06-01T07:58:56.371Z,14.07
2019-06-01T08:01:24.622Z,14.58
2019-06-01T08:03:50.843Z,15.03
2019-06-01T08:06:17.295Z,14.28
2019-06-01T08:08:43.695Z,13.40
2019-06-01T08:11:13.260Z,13.75
2019-06-01T08:13:39.667Z,13.90
2019-06-01T08:16:06.183Z,11.95
2019-06-01T08:18:32.398Z,14.70
2019-06-01T08:20:58.727Z,10.45
2019-06-01T08:23:26.164Z,13.50
2019-06-01T08:25:52.519Z,15.13
2019-06-01T08:28:18.901Z,14.75
2019-06-01T08:30:45.255Z,13.45
2019-06-01T08:33:11.722Z,13.28
2019-06-01T08:35:38.329Z,11.43
2019-06-01T08:38:04.596Z,13.93
2019-06-01T08:40:31.468Z,13.32
2019-06-01T08:42:57.860Z,11.48
2019-06-01T08:45:25.244Z,12.60
2019-06-01T08:47:51.818Z,9.50
2019-06-01T08:50:18.317Z,14.83
2019-06-01T08:52:44.654Z,13.75
2019-06-01T08:55:11.244Z,12.45
2019-06-01T08:57:37.519Z,13.48
2019-06-01T09:00:07.194Z,12.13
2019-06-01T09:02:34.851Z,12.82
2019-06-01T09:05:01.453Z,16.97
2019-06-01T09:07:29.008Z,13.00
2019-06-01T09:09:55.284Z,11.12
2019-06-01T09:12:21.603Z,11.45
2019-06-01T09:14:47.878Z,13.75
2019-06-01T09:17:18.294Z,12.80
2019-06-01T09:19:42.667Z,12.23
2019-06-01T09:22:09.068Z,14.00
2019-06-01T09:24:36.194Z,9.50
2019-06-01T09:27:02.929Z,8.80
2019-06-01T09:29:30.046Z,10.98
2019-06-01T09:31:56.599Z,10.53
2019-06-01T09:34:22.959Z,11.30
2019-06-01T09:36:49.424Z,11.78
2019-06-01T09:39:15.892Z,10.03
2019-06-01T09:41:42.244Z,12.60
2019-06-01T09:44:08.735Z,12.35
2019-06-01T09:46:35.615Z,11.83
2019-06-01T09:49:02.065Z,10.50
2019-06-01T09:51:29.455Z,8.68
2019-06-01T09:53:55.977Z,9.75
2019-06-01T09:56:22.230Z,11.65
2019-06-01T09:58:48.501Z,9.75
2019-06-01T10:01:14.857Z,10.15
2019-06-01T10:03:41.227Z,11.00
2019-06-01T10:06:07.651Z,10.00
2019-06-01T10:08:34.332Z,9.60
2019-06-01T10:11:02.599Z,10.78
2019-06-01T10:13:30.368Z,8.83
2019-06-01T10:15:56.925Z,7.33
2019-06-01T10:18:26.803Z,7.72
2019-06-01T10:20:51.438Z,7.35
2019-06-01T10:23:17.703Z,10.30
2019-06-01T10:25:43.964Z,7.95
2019-06-01T10:28:10.587Z,9.90
2019-06-01T10:30:37.937Z,11.05
2019-06-01T10:33:04.343Z,7.78
2019-06-01T10:35:30.909Z,10.35
2019-06-01T10:37:57.264Z,9.38
2019-06-01T10:40:23.644Z,7.87
2019-06-01T10:42:50.013Z,7.58
2019-06-01T10:45:16.900Z,7.72
2019-06-01T10:47:43.219Z,8.03
2019-06-01T10:50:09.787Z,8.15
2019-06-01T10:52:36.309Z,7.47
2019-06-01T10:55:05.825Z,9.40
2019-06-01T10:57:32.373Z,6.90
2019-06-01T10:59:58.752Z,8.93
2019-06-01T11:02:25.310Z,7.60
2019-06-01T11:04:51.576Z,6.97
2019-06-01T11:07:17.818Z,8.75
2019-06-01T11:09:44.141Z,7.25
2019-06-01T11:12:10.491Z,5.87
2019-06-01T11:14:37.067Z,7.58
2019-06-01T11:17:03.527Z,8.55
2019-06-01T11:19:29.903Z,7.50
2019-06-01T11:21:56.240Z,8.00
2019-06-01T11:24:22.689Z,8.20
2019-06-01T11:26:48.923Z,5.95
2019-06-01T11:29:15.236Z,5.53
2019-06-01T11:31:44.215Z,6.12
2019-06-01T11:34:10.552Z,5.42
2019-06-01T11:36:54.061Z,5.87
2019-06-01T11:39:05.902Z,6.17
2019-06-01T11:41:32.395Z,6.65
2019-06-01T11:43:58.905Z,6.22
2019-06-01T11:46:25.269Z,6.35
2019-06-01T11:48:52.038Z,6.30
2019-06-01T11:51:21.185Z,7.47
2019-06-01T11:53:47.808Z,8.40
2019-06-01T11:56:14.283Z,4.80
2019-06-01T11:58:41.427Z,7.00
2019-06-01T12:01:07.870Z,6.53
2019-06-01T12:03:35.448Z,6.80
2019-06-01T12:06:01.898Z,3.90
2019-06-01T12:08:28.257Z,5.70
2019-06-01T12:10:54.631Z,5.78
2019-06-01T12:13:23.366Z,5.62
2019-06-01T12:15:49.942Z,8.25
2019-06-01T12:18:17.022Z,6.70
2019-06-01T12:20:44.825Z,7.35
2019-06-01T12:23:11.323Z,6.92
2019-06-01T12:25:38.232Z,5.85
2019-06-01T12:28:04.653Z,5.05
2019-06-01T12:30:31.194Z,6.78
2019-06-01T12:32:57.540Z,6.22
2019-06-01T12:35:23.994Z,5.20
2019-06-01T12:38:05.726Z,5.60
2019-06-01T12:40:18.650Z,5.05
2019-06-01T12:42:45.994Z,5.87
2019-06-01T12:45:16.625Z,5.80
2019-06-01T12:47:43.925Z,5.53
2019-06-01T12:50:10.595Z,7.65
2019-06-01T12:52:37.098Z,5.58
2019-06-01T12:55:04.808Z,5.22
2019-06-01T12:57:31.200Z,7.10
2019-06-01T12:59:57.541Z,5.45
2019-06-01T13:02:23.945Z,5.05
2019-06-01T13:04:50.204Z,5.75
2019-06-01T13:07:16.462Z,4.85
2019-06-01T13:09:43.789Z,5.33
2019-06-01T13:12:10.540Z,4.90
2019-06-01T13:14:56.820Z,7.45
2019-06-01T13:17:23.190Z,4.25
2019-06-01T13:19:49.639Z,5.42
2019-06-01T13:22:15.942Z,5.90
2019-06-01T13:24:43.547Z,5.90
2019-06-01T13:27:10.002Z,4.15
2019-06-01T13:29:36.587Z,4.60
2019-06-01T13:32:03.136Z,4.53
2019-06-01T13:34:29.374Z,4.97
2019-06-01T13:36:55.723Z,4.00
2019-06-01T13:39:22.068Z,4.33
2019-06-01T13:41:49.494Z,4.00
2019-06-01T13:44:16.184Z,4.60
2019-06-01T13:46:43.480Z,5.42
2019-06-01T13:49:09.883Z,4.67
2019-06-01T13:51:36.155Z,5.28
2019-06-01T13:54:12.291Z,6.90
2019-06-01T13:56:38.746Z,5.12
2019-06-01T13:59:04.977Z,4.25
2019-06-01T14:01:31.366Z,4.70
2019-06-01T14:03:57.757Z,5.03
2019-06-01T14:06:24.213Z,4.92
2019-06-01T14:08:51.112Z,5.17
2019-06-01T14:11:17.479Z,5.92
2019-06-01T14:13:45.251Z,7.10
2019-06-01T14:16:11.733Z,8.38
2019-06-01T14:18:38.109Z,6.40
2019-06-01T14:21:04.398Z,7.95
2019-06-01T14:23:30.687Z,8.95
2019-06-01T14:25:57.014Z,11.38
2019-06-01T14:28:23.280Z,8.85
2019-06-01T14:30:50.231Z,13.90
2019-06-01T14:33:16.763Z,10.10
2019-06-01T14:35:43.015Z,8.03
2019-06-01T14:38:09.261Z,8.80
2019-06-01T14:40:35.548Z,9.53
2019-06-01T14:43:01.930Z,12.18
2019-06-01T14:45:28.629Z,9.88
2019-06-01T14:47:55.580Z,14.15
2019-06-01T14:50:22.182Z,7.50
2019-06-01T14:52:49.573Z,10.75
2019-06-01T14:55:16.297Z,14.58
2019-06-01T14:57:42.798Z,11.40
2019-06-01T15:00:10.167Z,10.18
2019-06-01T15:02:36.621Z,9.43
2019-06-01T15:05:07.622Z,12.40
2019-06-01T15:07:33.863Z,9.80
2019-06-01T15:10:00.248Z,10.70
2019-06-01T15:12:26.558Z,8.88
2019-06-01T15:14:53.001Z,10.13
2019-06-01T15:17:19.442Z,12.55
2019-06-01T15:19:45.741Z,10.03
2019-06-01T15:22:12.360Z,8.78
2019-06-01T15:24:38.611Z,10.15
2019-06-01T15:27:05.032Z,9.50
2019-06-01T15:29:31.531Z,11.08
2019-06-01T15:31:58.538Z,13.83
2019-06-01T15:34:25.083Z,12.45
2019-06-01T15:36:51.660Z,11.33
2019-06-01T15:39:24.922Z,10.50
2019-06-01T15:41:46.366Z,9.98
2019-06-01T15:44:12.758Z,11.35
2019-06-01T15:46:39.163Z,8.20
2019-06-01T15:49:05.792Z,10.68
2019-06-01T15:51:32.316Z,8.53
2019-06-01T15:53:59.088Z,9.90
2019-06-01T15:56:25.686Z,9.68
2019-06-01T15:58:54.722Z,7.10
2019-06-01T16:01:20.345Z,7.92
2019-06-01T16:03:46.685Z,9.23
2019-06-01T16:06:12.930Z,10.20
2019-06-01T16:08:39.208Z,8.05
2019-06-01T16:11:06.624Z,9.08
2019-06-01T16:13:35.598Z,8.00
2019-06-01T16:16:03.563Z,6.95
2019-06-01T16:18:30.074Z,8.15
2019-06-01T16:20:56.497Z,8.48
2019-06-01T16:23:22.939Z,10.10
2019-06-01T16:26:02.979Z,8.43
2019-06-01T16:28:17.446Z,6.67
2019-06-01T16:30:44.078Z,7.75
2019-06-01T16:33:10.533Z,6.30
2019-06-01T16:35:36.812Z,9.65
2019-06-01T16:38:04.457Z,8.03
2019-06-01T16:40:31.611Z,8.40
2019-06-01T16:42:59.154Z,9.55
2019-06-01T16:45:25.714Z,9.70
2019-06-01T16:47:52.136Z,8.30
2019-06-01T16:50:18.664Z,10.58
2019-06-01T16:52:45.235Z,9.33
2019-06-01T16:55:11.915Z,8.60
2019-06-01T16:57:38.159Z,8.20
2019-06-01T17:00:07.568Z,11.05
2019-06-01T17:02:34.155Z,10.00
2019-06-01T17:05:00.725Z,7.90
2019-06-01T17:07:27.341Z,9.23
2019-06-01T17:09:54.577Z,8.98
2019-06-01T17:12:21.217Z,12.53
2019-06-01T17:14:47.686Z,12.88
2019-06-01T17:17:14.073Z,12.78
2019-06-01T17:19:40.519Z,11.00
2019-06-01T17:22:07.671Z,9.85
2019-06-01T17:24:34.588Z,8.18
2019-06-01T17:27:02.158Z,8.80
2019-06-01T17:29:28.878Z,10.15
2019-06-01T17:32:12.583Z,8.90
2019-06-01T17:34:23.323Z,10.30
2019-06-01T17:36:50.189Z,8.95
2019-06-01T17:39:16.728Z,10.23
2019-06-01T17:41:43.242Z,8.75
2019-06-01T17:44:09.614Z,8.85
2019-06-01T17:46:52.378Z,9.45
2019-06-01T17:49:04.157Z,12.23
2019-06-01T17:51:31.997Z,13.65
2019-06-01T17:53:58.601Z,12.03
2019-06-01T17:56:24.991Z,8.23
2019-06-01T17:58:51.903Z,8.88
2019-06-01T18:01:18.368Z,6.95
2019-06-01T18:03:44.622Z,8.70
2019-06-01T18:06:12.792Z,7.35
2019-06-01T18:08:39.334Z,6.28
2019-06-01T18:11:06.024Z,6.85
2019-06-01T18:13:32.357Z,7.70
2019-06-01T18:15:58.701Z,7.10
2019-06-01T18:18:25.069Z,6.53
2019-06-01T18:20:51.645Z,6.15
2019-06-01T18:23:18.118Z,6.37
2019-06-01T18:25:44.389Z,6.62
2019-06-01T18:28:16.090Z,9.05
2019-06-01T18:30:39.180Z,9.25
2019-06-01T18:33:07.131Z,6.90
2019-06-01T18:35:33.658Z,7.12
2019-06-01T18:38:00.048Z,6.50
2019-06-01T18:40:26.551Z,6.53
2019-06-01T18:42:56.823Z,5.22
2019-06-01T18:45:23.471Z,5.53
2019-06-01T18:47:50.024Z,6.10
2019-06-01T18:50:17.524Z,6.90
2019-06-01T18:52:43.979Z,8.20
2019-06-01T18:55:10.686Z,5.87
2019-06-01T18:57:40.311Z,8.00
2019-06-01T19:00:10.953Z,5.62
2019-06-01T19:02:36.575Z,6.78
2019-06-01T19:05:07.024Z,4.60
2019-06-01T19:07:33.627Z,6.95
2019-06-01T19:09:59.990Z,5.03
2019-06-01T19:12:26.334Z,4.75
2019-06-01T19:14:52.697Z,3.12
2019-06-01T19:17:19.004Z,6.60
2019-06-01T19:19:45.295Z,4.22
2019-06-01T19:22:12.525Z,4.20
2019-06-01T19:24:38.910Z,4.45
2019-06-01T19:27:06.576Z,5.50
2019-06-01T19:29:33.150Z,6.05
2019-06-01T19:31:59.792Z,8.73
2019-06-01T19:34:26.582Z,11.90
2019-06-01T19:36:53.575Z,12.45
2019-06-01T19:39:21.702Z,7.40
2019-06-01T19:41:48.471Z,5.35
2019-06-01T19:44:15.809Z,4.40
2019-06-01T19:46:42.403Z,5.15
2019-06-01T19:49:08.701Z,4.95
2019-06-01T19:51:35.142Z,7.15
2019-06-01T19:54:04.536Z,4.05
2019-06-01T19:56:30.881Z,4.00
2019-06-01T19:58:57.622Z,5.33
2019-06-01T20:01:24.379Z,6.00
2019-06-01T20:03:50.999Z,4.83
2019-06-01T20:06:17.520Z,3.22
2019-06-01T20:08:44.008Z,3.95
2019-06-01T20:11:11.190Z,4.47
2019-06-01T20:13:37.563Z,5.17
2019-06-01T20:16:04.071Z,3.95
2019-06-01T20:18:30.335Z,5.85
2019-06-01T20:20:56.760Z,5.28
2019-06-01T20:23:23.790Z,4.75
2019-06-01T20:25:50.228Z,3.72
2019-06-01T20:28:17.504Z,3.95
2019-06-01T20:30:44.017Z,4.87
2019-06-01T20:33:11.895Z,3.50
2019-06-01T20:35:38.521Z,4.72
2019-06-01T20:38:07.379Z,4.55
2019-06-01T20:40:33.743Z,4.87
2019-06-01T20:43:00.276Z,4.58
2019-06-01T20:45:27.039Z,4.42
2019-06-01T20:47:53.564Z,4.25
2019-06-01T20:50:20.848Z,4.75
2019-06-01T20:52:49.859Z,5.28
2019-06-01T20:55:16.959Z,4.40
2019-06-01T20:57:43.651Z,4.42
2019-06-01T21:00:13.271Z,4.83
2019-06-01T21:02:40.030Z,4.47
2019-06-01T21:05:06.865Z,5.03
2019-06-01T21:07:33.179Z,4.80
2019-06-01T21:09:59.423Z,5.78
2019-06-01T21:12:43.978Z,4.42
2019-06-01T21:14:54.042Z,8.08
2019-06-01T21:17:20.652Z,19.90
2019-06-01T21:19:47.102Z,17.27
2019-06-01T21:22:14.486Z,21.42
2019-06-01T21:24:40.864Z,24.35
2019-06-01T21:27:07.120Z,20.15
2019-06-01T21:29:33.534Z,11.57
2019-06-01T21:31:59.796Z,12.45
2019-06-01T21:34:26.144Z,9.28
2019-06-01T21:36:52.425Z,7.42
2019-06-01T21:39:19.599Z,9.05
2019-06-01T21:41:46.077Z,9.38
2019-06-01T21:44:12.380Z,7.45
2019-06-01T21:46:38.784Z,8.45
2019-06-01T21:49:05.252Z,10.08
2019-06-01T21:51:31.508Z,9.18
2019-06-01T21:53:57.804Z,9.03
2019-06-01T21:56:25.170Z,8.65
2019-06-01T21:58:51.848Z,9.65
2019-06-01T22:01:18.435Z,11.08
2019-06-01T22:03:44.841Z,8.93
2019-06-01T22:06:11.242Z,8.95
2019-06-01T22:08:37.512Z,7.95
2019-06-01T22:11:03.989Z,7.87
2019-06-01T22:13:30.363Z,9.35
2019-06-01T22:15:56.810Z,7.97
2019-06-01T22:18:23.757Z,10.90
2019-06-01T22:20:50.365Z,7.85
2019-06-01T22:23:17.894Z,7.10
2019-06-01T22:25:44.304Z,7.50
2019-06-01T22:28:10.728Z,7.30
2019-06-01T22:30:37.181Z,9.50
2019-06-01T22:33:03.541Z,6.87
2019-06-01T22:35:29.902Z,7.35
2019-06-01T22:37:56.177Z,7.45
2019-06-01T22:40:22.784Z,7.47
2019-06-01T22:42:49.059Z,7.17
2019-06-01T22:45:15.626Z,6.55
2019-06-01T22:47:41.986Z,8.00
2019-06-01T22:50:08.802Z,6.00
2019-06-01T22:52:35.156Z,6.87
2019-06-01T22:55:01.635Z,7.03
2019-06-01T22:57:28.502Z,7.17
2019-06-01T22:59:54.954Z,7.05
2019-06-01T23:02:21.581Z,5.15
2019-06-01T23:04:48.008Z,6.53
2019-06-01T23:07:14.574Z,7.03
2019-06-01T23:09:41.200Z,6.40
2019-06-01T23:12:07.538Z,6.08
2019-06-01T23:14:34.175Z,6.03
2019-06-01T23:17:00.676Z,6.78
2019-06-01T23:19:28.034Z,6.95
2019-06-01T23:21:54.428Z,4.85
2019-06-01T23:24:21.828Z,5.28
2019-06-01T23:26:48.353Z,5.72
2019-06-01T23:29:14.757Z,4.97
2019-06-01T23:31:41.134Z,5.58
2019-06-01T23:34:07.755Z,5.78
2019-06-01T23:36:34.103Z,4.17
2019-06-01T23:39:00.371Z,4.92
2019-06-01T23:41:26.691Z,5.62
2019-06-01T23:44:09.921Z,8.23
2019-06-01T23:46:21.030Z,6.35
2019-06-01T23:48:47.505Z,6.00
2019-06-01T23:51:13.779Z,5.80
2019-06-01T23:53:40.240Z,7.22
2019-06-01T23:56:06.696Z,7.72
2019-06-01T23:58:32.987Z,7.00
